Terminal Aerodrome Forecast
Issued by NWS Tuscon, AZ

Home | Current Version | Previous Version | Text Only | Print | Product List | Glossary On
Versions: 1 2 3 4 5 6 7 8 9 10 11 12 13 14 15 16 17
000
FTUS45 KTWC 030500
TAFTUS
TAF
KTUS 030535Z 0306/0406 09005KT P6SM SCT050 OVC080
     FM031000 16005KT P6SM SCT100 SCT200
     FM031800 25008KT P6SM SCT080 SCT150
     FM032200 29011KT P6SM SCT070 BKN140
     FM040300 26007KT P6SM BKN070=

USA.gov is the U.S. government's official web portal to all federal, state and local government web resources and services.